sensor_id;sensor_type;location;lat;lon;timestamp;P1;durP1;ratioP1;P2;durP2;ratioP2
32872;SDS011;19224;52.462;16.898;2022-07-19T00:01:10;7.65;;;3.75;;
32872;SDS011;19224;52.462;16.898;2022-07-19T00:03:40;6.95;;;3.72;;
32872;SDS011;19224;52.462;16.898;2022-07-19T00:06:10;6.58;;;4.00;;
32872;SDS011;19224;52.462;16.898;2022-07-19T00:08:40;6.35;;;3.67;;
32872;SDS011;19224;52.462;16.898;2022-07-19T00:11:10;6.53;;;3.42;;
32872;SDS011;19224;52.462;16.898;2022-07-19T00:13:40;9.23;;;3.58;;
32872;SDS011;19224;52.462;16.898;2022-07-19T00:16:10;8.23;;;3.83;;
32872;SDS011;19224;52.462;16.898;2022-07-19T00:18:40;8.00;;;3.65;;
32872;SDS011;19224;52.462;16.898;2022-07-19T00:21:11;5.60;;;3.50;;
32872;SDS011;19224;52.462;16.898;2022-07-19T00:23:41;7.65;;;3.77;;
32872;SDS011;19224;52.462;16.898;2022-07-19T00:26:11;6.12;;;3.80;;
32872;SDS011;19224;52.462;16.898;2022-07-19T00:28:41;9.00;;;4.40;;
32872;SDS011;19224;52.462;16.898;2022-07-19T00:31:11;10.18;;;4.12;;
32872;SDS011;19224;52.462;16.898;2022-07-19T00:33:41;7.20;;;3.80;;
32872;SDS011;19224;52.462;16.898;2022-07-19T00:36:11;8.25;;;3.55;;
32872;SDS011;19224;52.462;16.898;2022-07-19T00:38:41;9.65;;;3.85;;
32872;SDS011;19224;52.462;16.898;2022-07-19T00:41:12;8.48;;;3.40;;
32872;SDS011;19224;52.462;16.898;2022-07-19T00:43:43;6.80;;;3.80;;
32872;SDS011;19224;52.462;16.898;2022-07-19T00:46:17;8.65;;;3.95;;
32872;SDS011;19224;52.462;16.898;2022-07-19T00:48:50;6.25;;;3.58;;
32872;SDS011;19224;52.462;16.898;2022-07-19T00:51:20;5.80;;;3.70;;
32872;SDS011;19224;52.462;16.898;2022-07-19T00:53:50;8.60;;;4.00;;
32872;SDS011;19224;52.462;16.898;2022-07-19T00:56:23;6.22;;;3.20;;
32872;SDS011;19224;52.462;16.898;2022-07-19T00:58:55;5.87;;;3.52;;
32872;SDS011;19224;52.462;16.898;2022-07-19T01:01:27;6.62;;;3.80;;
32872;SDS011;19224;52.462;16.898;2022-07-19T01:03:58;6.35;;;3.60;;
32872;SDS011;19224;52.462;16.898;2022-07-19T01:06:28;7.58;;;3.55;;
32872;SDS011;19224;52.462;16.898;2022-07-19T01:09:01;10.65;;;3.50;;
32872;SDS011;19224;52.462;16.898;2022-07-19T01:11:32;9.40;;;3.75;;
32872;SDS011;19224;52.462;16.898;2022-07-19T01:14:03;5.40;;;3.50;;
32872;SDS011;19224;52.462;16.898;2022-07-19T01:16:33;6.85;;;3.52;;
32872;SDS011;19224;52.462;16.898;2022-07-19T01:19:05;9.50;;;4.10;;
32872;SDS011;19224;52.462;16.898;2022-07-19T01:21:35;7.70;;;3.10;;
32872;SDS011;19224;52.462;16.898;2022-07-19T01:24:06;8.83;;;3.42;;
32872;SDS011;19224;52.462;16.898;2022-07-19T01:26:36;7.42;;;5.00;;
32872;SDS011;19224;52.462;16.898;2022-07-19T01:29:06;17.30;;;12.82;;
32872;SDS011;19224;52.462;16.898;2022-07-19T01:31:38;14.20;;;8.28;;
32872;SDS011;19224;52.462;16.898;2022-07-19T01:34:08;9.48;;;4.28;;
32872;SDS011;19224;52.462;16.898;2022-07-19T01:36:38;6.90;;;3.58;;
32872;SDS011;19224;52.462;16.898;2022-07-19T01:39:08;5.55;;;3.15;;
32872;SDS011;19224;52.462;16.898;2022-07-19T01:41:38;7.05;;;3.60;;
32872;SDS011;19224;52.462;16.898;2022-07-19T01:44:08;7.15;;;3.55;;
32872;SDS011;19224;52.462;16.898;2022-07-19T01:46:38;4.65;;;3.27;;
32872;SDS011;19224;52.462;16.898;2022-07-19T01:49:08;15.03;;;3.92;;
32872;SDS011;19224;52.462;16.898;2022-07-19T01:51:38;5.65;;;3.70;;
32872;SDS011;19224;52.462;16.898;2022-07-19T01:54:08;5.37;;;3.37;;
32872;SDS011;19224;52.462;16.898;2022-07-19T01:56:41;7.45;;;3.62;;
32872;SDS011;19224;52.462;16.898;2022-07-19T01:59:13;6.83;;;3.75;;
32872;SDS011;19224;52.462;16.898;2022-07-19T02:01:43;7.90;;;3.62;;
32872;SDS011;19224;52.462;16.898;2022-07-19T02:04:13;10.30;;;3.50;;
32872;SDS011;19224;52.462;16.898;2022-07-19T02:06:43;8.30;;;3.87;;
32872;SDS011;19224;52.462;16.898;2022-07-19T02:09:13;12.23;;;3.85;;
32872;SDS011;19224;52.462;16.898;2022-07-19T02:11:43;8.68;;;3.58;;
32872;SDS011;19224;52.462;16.898;2022-07-19T02:14:13;11.05;;;3.75;;
32872;SDS011;19224;52.462;16.898;2022-07-19T02:16:44;7.37;;;3.52;;
32872;SDS011;19224;52.462;16.898;2022-07-19T02:19:14;9.48;;;3.83;;
32872;SDS011;19224;52.462;16.898;2022-07-19T02:21:44;7.22;;;3.50;;
32872;SDS011;19224;52.462;16.898;2022-07-19T02:24:15;5.75;;;3.10;;
32872;SDS011;19224;52.462;16.898;2022-07-19T02:26:45;6.35;;;3.45;;
32872;SDS011;19224;52.462;16.898;2022-07-19T02:29:15;5.92;;;3.50;;
32872;SDS011;19224;52.462;16.898;2022-07-19T02:31:45;7.92;;;3.67;;
32872;SDS011;19224;52.462;16.898;2022-07-19T02:34:15;10.93;;;3.90;;
32872;SDS011;19224;52.462;16.898;2022-07-19T02:36:45;5.53;;;3.50;;
32872;SDS011;19224;52.462;16.898;2022-07-19T02:39:15;8.98;;;3.45;;
32872;SDS011;19224;52.462;16.898;2022-07-19T02:41:45;8.00;;;3.60;;
32872;SDS011;19224;52.462;16.898;2022-07-19T02:44:15;6.40;;;3.60;;
32872;SDS011;19224;52.462;16.898;2022-07-19T02:46:45;8.25;;;4.30;;
32872;SDS011;19224;52.462;16.898;2022-07-19T02:49:16;9.65;;;4.17;;
32872;SDS011;19224;52.462;16.898;2022-07-19T02:51:48;8.28;;;3.72;;
32872;SDS011;19224;52.462;16.898;2022-07-19T02:54:18;9.30;;;4.25;;
32872;SDS011;19224;52.462;16.898;2022-07-19T02:56:48;11.65;;;3.90;;
32872;SDS011;19224;52.462;16.898;2022-07-19T02:59:18;11.75;;;3.65;;
32872;SDS011;19224;52.462;16.898;2022-07-19T03:01:48;9.43;;;4.00;;
32872;SDS011;19224;52.462;16.898;2022-07-19T03:04:18;6.78;;;3.67;;
32872;SDS011;19224;52.462;16.898;2022-07-19T03:06:48;12.58;;;4.00;;
32872;SDS011;19224;52.462;16.898;2022-07-19T03:09:18;7.30;;;3.62;;
32872;SDS011;19224;52.462;16.898;2022-07-19T03:11:48;10.18;;;3.95;;
32872;SDS011;19224;52.462;16.898;2022-07-19T03:14:18;9.58;;;3.80;;
32872;SDS011;19224;52.462;16.898;2022-07-19T03:16:48;7.28;;;3.92;;
32872;SDS011;19224;52.462;16.898;2022-07-19T03:19:18;6.83;;;3.55;;
32872;SDS011;19224;52.462;16.898;2022-07-19T03:21:48;8.63;;;4.00;;
32872;SDS011;19224;52.462;16.898;2022-07-19T03:24:18;8.45;;;3.67;;
32872;SDS011;19224;52.462;16.898;2022-07-19T03:26:48;8.80;;;3.77;;
32872;SDS011;19224;52.462;16.898;2022-07-19T03:29:18;15.78;;;4.37;;
32872;SDS011;19224;52.462;16.898;2022-07-19T03:31:48;7.45;;;4.40;;
32872;SDS011;19224;52.462;16.898;2022-07-19T03:34:19;11.93;;;3.80;;
32872;SDS011;19224;52.462;16.898;2022-07-19T03:36:49;9.30;;;3.75;;
32872;SDS011;19224;52.462;16.898;2022-07-19T03:39:19;11.15;;;3.83;;
32872;SDS011;19224;52.462;16.898;2022-07-19T03:41:51;10.58;;;3.75;;
32872;SDS011;19224;52.462;16.898;2022-07-19T03:44:21;13.32;;;4.08;;
32872;SDS011;19224;52.462;16.898;2022-07-19T03:46:51;12.93;;;4.20;;
32872;SDS011;19224;52.462;16.898;2022-07-19T03:49:21;13.08;;;4.50;;
32872;SDS011;19224;52.462;16.898;2022-07-19T03:51:51;10.23;;;4.35;;
32872;SDS011;19224;52.462;16.898;2022-07-19T03:54:21;12.58;;;4.42;;
32872;SDS011;19224;52.462;16.898;2022-07-19T03:56:51;11.43;;;3.98;;
32872;SDS011;19224;52.462;16.898;2022-07-19T03:59:22;9.15;;;4.03;;
32872;SDS011;19224;52.462;16.898;2022-07-19T04:01:53;9.23;;;4.15;;
32872;SDS011;19224;52.462;16.898;2022-07-19T04:04:23;11.22;;;4.40;;
32872;SDS011;19224;52.462;16.898;2022-07-19T04:06:54;12.10;;;4.53;;
32872;SDS011;19224;52.462;16.898;2022-07-19T04:09:23;8.93;;;4.30;;
32872;SDS011;19224;52.462;16.898;2022-07-19T04:11:53;8.93;;;3.85;;
32872;SDS011;19224;52.462;16.898;2022-07-19T04:14:23;15.38;;;4.50;;
32872;SDS011;19224;52.462;16.898;2022-07-19T04:16:53;13.18;;;4.53;;
32872;SDS011;19224;52.462;16.898;2022-07-19T04:19:24;17.23;;;8.98;;
32872;SDS011;19224;52.462;16.898;2022-07-19T04:21:54;13.80;;;5.10;;
32872;SDS011;19224;52.462;16.898;2022-07-19T04:24:24;15.10;;;4.20;;
32872;SDS011;19224;52.462;16.898;2022-07-19T04:26:54;9.58;;;4.45;;
32872;SDS011;19224;52.462;16.898;2022-07-19T04:29:24;8.65;;;4.30;;
32872;SDS011;19224;52.462;16.898;2022-07-19T04:31:54;10.88;;;4.12;;
32872;SDS011;19224;52.462;16.898;2022-07-19T04:34:25;8.85;;;4.40;;
32872;SDS011;19224;52.462;16.898;2022-07-19T04:36:55;12.60;;;4.45;;
32872;SDS011;19224;52.462;16.898;2022-07-19T04:39:25;10.85;;;5.33;;
32872;SDS011;19224;52.462;16.898;2022-07-19T04:41:55;11.38;;;4.62;;
32872;SDS011;19224;52.462;16.898;2022-07-19T04:44:25;12.20;;;5.15;;
32872;SDS011;19224;52.462;16.898;2022-07-19T04:46:55;13.75;;;4.92;;
32872;SDS011;19224;52.462;16.898;2022-07-19T04:49:25;10.20;;;5.20;;
32872;SDS011;19224;52.462;16.898;2022-07-19T04:51:55;12.05;;;5.12;;
32872;SDS011;19224;52.462;16.898;2022-07-19T04:54:25;8.93;;;4.87;;
32872;SDS011;19224;52.462;16.898;2022-07-19T04:56:55;10.28;;;5.05;;
32872;SDS011;19224;52.462;16.898;2022-07-19T04:59:25;8.15;;;5.17;;
32872;SDS011;19224;52.462;16.898;2022-07-19T05:01:55;8.40;;;4.40;;
32872;SDS011;19224;52.462;16.898;2022-07-19T05:04:25;7.20;;;4.72;;
32872;SDS011;19224;52.462;16.898;2022-07-19T05:06:54;11.22;;;5.12;;
32872;SDS011;19224;52.462;16.898;2022-07-19T05:09:25;14.43;;;5.35;;
32872;SDS011;19224;52.462;16.898;2022-07-19T05:11:57;10.75;;;4.90;;
32872;SDS011;19224;52.462;16.898;2022-07-19T05:14:28;11.08;;;5.03;;
32872;SDS011;19224;52.462;16.898;2022-07-19T05:16:58;8.18;;;4.95;;
32872;SDS011;19224;52.462;16.898;2022-07-19T05:19:28;8.53;;;4.67;;
32872;SDS011;19224;52.462;16.898;2022-07-19T05:21:58;8.93;;;5.17;;
32872;SDS011;19224;52.462;16.898;2022-07-19T05:24:28;8.98;;;5.00;;
32872;SDS011;19224;52.462;16.898;2022-07-19T05:26:59;14.43;;;5.00;;
32872;SDS011;19224;52.462;16.898;2022-07-19T05:29:29;8.53;;;4.90;;
32872;SDS011;19224;52.462;16.898;2022-07-19T05:31:59;10.63;;;4.72;;
32872;SDS011;19224;52.462;16.898;2022-07-19T05:34:30;12.98;;;4.92;;
32872;SDS011;19224;52.462;16.898;2022-07-19T05:37:00;9.85;;;4.30;;
32872;SDS011;19224;52.462;16.898;2022-07-19T05:39:30;13.72;;;4.40;;
32872;SDS011;19224;52.462;16.898;2022-07-19T05:42:00;8.50;;;4.40;;
32872;SDS011;19224;52.462;16.898;2022-07-19T05:44:31;10.90;;;4.55;;
32872;SDS011;19224;52.462;16.898;2022-07-19T05:47:01;7.70;;;4.90;;
32872;SDS011;19224;52.462;16.898;2022-07-19T05:49:32;11.30;;;4.33;;
32872;SDS011;19224;52.462;16.898;2022-07-19T05:52:02;7.05;;;4.40;;
32872;SDS011;19224;52.462;16.898;2022-07-19T05:54:32;11.57;;;4.65;;
32872;SDS011;19224;52.462;16.898;2022-07-19T05:57:02;14.07;;;4.33;;
32872;SDS011;19224;52.462;16.898;2022-07-19T05:59:33;8.83;;;4.20;;
32872;SDS011;19224;52.462;16.898;2022-07-19T06:02:03;13.38;;;4.45;;
32872;SDS011;19224;52.462;16.898;2022-07-19T06:04:33;15.30;;;4.50;;
32872;SDS011;19224;52.462;16.898;2022-07-19T06:07:03;12.65;;;4.67;;
32872;SDS011;19224;52.462;16.898;2022-07-19T06:09:32;9.43;;;4.35;;
32872;SDS011;19224;52.462;16.898;2022-07-19T06:12:03;14.18;;;4.50;;
32872;SDS011;19224;52.462;16.898;2022-07-19T06:14:34;10.15;;;4.00;;
32872;SDS011;19224;52.462;16.898;2022-07-19T06:17:04;8.65;;;4.50;;
32872;SDS011;19224;52.462;16.898;2022-07-19T06:19:36;9.75;;;4.55;;
32872;SDS011;19224;52.462;16.898;2022-07-19T06:22:06;13.65;;;5.25;;
32872;SDS011;19224;52.462;16.898;2022-07-19T06:24:36;15.00;;;4.42;;
32872;SDS011;19224;52.462;16.898;2022-07-19T06:27:06;11.20;;;3.77;;
32872;SDS011;19224;52.462;16.898;2022-07-19T06:29:36;11.43;;;4.40;;
32872;SDS011;19224;52.462;16.898;2022-07-19T06:32:06;10.18;;;3.83;;
32872;SDS011;19224;52.462;16.898;2022-07-19T06:34:36;11.93;;;4.17;;
32872;SDS011;19224;52.462;16.898;2022-07-19T06:37:06;9.90;;;3.70;;
32872;SDS011;19224;52.462;16.898;2022-07-19T06:39:36;10.95;;;3.95;;
32872;SDS011;19224;52.462;16.898;2022-07-19T06:42:06;11.35;;;4.08;;
32872;SDS011;19224;52.462;16.898;2022-07-19T06:44:36;13.25;;;4.53;;
32872;SDS011;19224;52.462;16.898;2022-07-19T06:47:06;11.97;;;3.83;;
32872;SDS011;19224;52.462;16.898;2022-07-19T06:49:36;10.00;;;3.17;;
32872;SDS011;19224;52.462;16.898;2022-07-19T06:52:06;6.72;;;2.90;;
32872;SDS011;19224;52.462;16.898;2022-07-19T06:54:36;6.62;;;2.62;;
32872;SDS011;19224;52.462;16.898;2022-07-19T06:57:06;7.97;;;3.02;;
32872;SDS011;19224;52.462;16.898;2022-07-19T06:59:36;9.30;;;3.30;;
32872;SDS011;19224;52.462;16.898;2022-07-19T07:02:06;3.70;;;2.67;;
32872;SDS011;19224;52.462;16.898;2022-07-19T07:04:36;6.15;;;3.12;;
32872;SDS011;19224;52.462;16.898;2022-07-19T07:07:06;11.85;;;3.58;;
32872;SDS011;19224;52.462;16.898;2022-07-19T07:09:37;7.05;;;3.10;;
32872;SDS011;19224;52.462;16.898;2022-07-19T07:12:07;6.97;;;2.90;;
32872;SDS011;19224;52.462;16.898;2022-07-19T07:14:37;9.28;;;2.90;;
32872;SDS011;19224;52.462;16.898;2022-07-19T07:17:07;11.65;;;3.10;;
32872;SDS011;19224;52.462;16.898;2022-07-19T07:19:37;9.38;;;3.30;;
32872;SDS011;19224;52.462;16.898;2022-07-19T07:22:07;13.05;;;3.30;;
32872;SDS011;19224;52.462;16.898;2022-07-19T07:24:37;6.75;;;3.25;;
32872;SDS011;19224;52.462;16.898;2022-07-19T07:27:07;9.10;;;3.02;;
32872;SDS011;19224;52.462;16.898;2022-07-19T07:29:37;11.57;;;3.25;;
32872;SDS011;19224;52.462;16.898;2022-07-19T07:32:08;5.42;;;3.02;;
32872;SDS011;19224;52.462;16.898;2022-07-19T07:34:38;7.08;;;3.20;;
32872;SDS011;19224;52.462;16.898;2022-07-19T07:37:08;12.95;;;3.27;;
32872;SDS011;19224;52.462;16.898;2022-07-19T07:39:38;8.50;;;2.77;;
32872;SDS011;19224;52.462;16.898;2022-07-19T07:42:09;11.20;;;2.60;;
32872;SDS011;19224;52.462;16.898;2022-07-19T07:44:39;6.75;;;2.52;;
32872;SDS011;19224;52.462;16.898;2022-07-19T07:47:10;8.28;;;2.92;;
32872;SDS011;19224;52.462;16.898;2022-07-19T07:49:41;16.93;;;4.47;;
32872;SDS011;19224;52.462;16.898;2022-07-19T07:52:11;23.42;;;6.30;;
32872;SDS011;19224;52.462;16.898;2022-07-19T07:54:41;12.68;;;2.65;;
32872;SDS011;19224;52.462;16.898;2022-07-19T07:57:11;8.78;;;2.40;;
32872;SDS011;19224;52.462;16.898;2022-07-19T07:59:41;6.40;;;2.30;;
32872;SDS011;19224;52.462;16.898;2022-07-19T08:02:11;4.85;;;2.47;;
32872;SDS011;19224;52.462;16.898;2022-07-19T08:04:41;4.28;;;2.50;;
32872;SDS011;19224;52.462;16.898;2022-07-19T08:07:11;8.60;;;2.52;;
32872;SDS011;19224;52.462;16.898;2022-07-19T08:09:41;6.47;;;2.60;;
32872;SDS011;19224;52.462;16.898;2022-07-19T08:12:11;8.38;;;2.50;;
32872;SDS011;19224;52.462;16.898;2022-07-19T08:14:41;5.65;;;2.60;;
32872;SDS011;19224;52.462;16.898;2022-07-19T08:17:11;8.93;;;2.50;;
32872;SDS011;19224;52.462;16.898;2022-07-19T08:19:41;7.42;;;2.67;;
32872;SDS011;19224;52.462;16.898;2022-07-19T08:22:17;5.80;;;2.42;;
32872;SDS011;19224;52.462;16.898;2022-07-19T08:24:46;4.75;;;2.60;;
32872;SDS011;19224;52.462;16.898;2022-07-19T08:27:16;15.18;;;3.60;;
32872;SDS011;19224;52.462;16.898;2022-07-19T08:29:46;9.08;;;2.50;;
32872;SDS011;19224;52.462;16.898;2022-07-19T08:32:16;10.05;;;2.75;;
32872;SDS011;19224;52.462;16.898;2022-07-19T08:34:47;8.03;;;2.37;;
32872;SDS011;19224;52.462;16.898;2022-07-19T08:37:17;8.40;;;2.40;;
32872;SDS011;19224;52.462;16.898;2022-07-19T08:39:47;5.55;;;2.33;;
32872;SDS011;19224;52.462;16.898;2022-07-19T08:42:20;3.00;;;2.27;;
32872;SDS011;19224;52.462;16.898;2022-07-19T08:44:52;5.58;;;2.55;;
32872;SDS011;19224;52.462;16.898;2022-07-19T08:47:22;5.97;;;2.35;;
32872;SDS011;19224;52.462;16.898;2022-07-19T08:49:53;10.50;;;2.40;;
32872;SDS011;19224;52.462;16.898;2022-07-19T08:52:25;8.20;;;2.60;;
32872;SDS011;19224;52.462;16.898;2022-07-19T08:54:56;9.03;;;2.45;;
32872;SDS011;19224;52.462;16.898;2022-07-19T08:57:26;8.63;;;2.52;;
32872;SDS011;19224;52.462;16.898;2022-07-19T09:00:14;4.55;;;2.30;;
32872;SDS011;19224;52.462;16.898;2022-07-19T09:02:54;7.10;;;2.37;;
32872;SDS011;19224;52.462;16.898;2022-07-19T09:05:25;3.90;;;2.02;;
32872;SDS011;19224;52.462;16.898;2022-07-19T09:08:13;3.50;;;1.75;;
32872;SDS011;19224;52.462;16.898;2022-07-19T09:10:46;6.35;;;2.20;;
32872;SDS011;19224;52.462;16.898;2022-07-19T09:13:36;11.55;;;2.20;;
32872;SDS011;19224;52.462;16.898;2022-07-19T09:16:06;3.95;;;2.05;;
32872;SDS011;19224;52.462;16.898;2022-07-19T09:18:53;5.62;;;2.40;;
32872;SDS011;19224;52.462;16.898;2022-07-19T09:21:27;6.75;;;2.52;;
32872;SDS011;19224;52.462;16.898;2022-07-19T09:23:57;5.92;;;2.40;;
32872;SDS011;19224;52.462;16.898;2022-07-19T09:26:29;7.95;;;2.70;;
32872;SDS011;19224;52.462;16.898;2022-07-19T09:29:15;10.00;;;2.87;;
32872;SDS011;19224;52.462;16.898;2022-07-19T09:34:38;7.60;;;2.30;;
32872;SDS011;19224;52.462;16.898;2022-07-19T09:37:23;3.75;;;2.00;;
32872;SDS011;19224;52.462;16.898;2022-07-19T09:39:58;6.53;;;2.12;;
32872;SDS011;19224;52.462;16.898;2022-07-19T09:42:43;3.62;;;2.08;;
32872;SDS011;19224;52.462;16.898;2022-07-19T09:45:13;6.17;;;2.27;;
32872;SDS011;19224;52.462;16.898;2022-07-19T09:47:45;5.65;;;2.20;;
32872;SDS011;19224;52.462;16.898;2022-07-19T09:50:19;6.72;;;2.50;;
32872;SDS011;19224;52.462;16.898;2022-07-19T09:52:50;8.50;;;2.22;;
32872;SDS011;19224;52.462;16.898;2022-07-19T09:55:21;6.65;;;2.20;;
32872;SDS011;19224;52.462;16.898;2022-07-19T09:57:51;8.28;;;2.40;;
32872;SDS011;19224;52.462;16.898;2022-07-19T10:00:23;4.62;;;2.27;;
32872;SDS011;19224;52.462;16.898;2022-07-19T10:02:55;12.43;;;2.70;;
32872;SDS011;19224;52.462;16.898;2022-07-19T10:05:28;4.70;;;2.22;;
32872;SDS011;19224;52.462;16.898;2022-07-19T10:07:58;5.50;;;3.52;;
32872;SDS011;19224;52.462;16.898;2022-07-19T10:10:29;3.85;;;2.02;;
32872;SDS011;19224;52.462;16.898;2022-07-19T10:12:59;4.00;;;2.12;;
32872;SDS011;19224;52.462;16.898;2022-07-19T10:15:31;3.98;;;2.30;;
32872;SDS011;19224;52.462;16.898;2022-07-19T10:18:10;16.07;;;2.90;;
32872;SDS011;19224;52.462;16.898;2022-07-19T10:20:47;8.18;;;2.45;;
32872;SDS011;19224;52.462;16.898;2022-07-19T10:23:25;9.58;;;2.40;;
32872;SDS011;19224;52.462;16.898;2022-07-19T10:25:56;8.88;;;2.42;;
32872;SDS011;19224;52.462;16.898;2022-07-19T10:28:30;9.60;;;2.12;;
32872;SDS011;19224;52.462;16.898;2022-07-19T10:31:02;12.20;;;2.72;;
32872;SDS011;19224;52.462;16.898;2022-07-19T10:34:01;6.08;;;1.90;;
32872;SDS011;19224;52.462;16.898;2022-07-19T10:36:38;8.05;;;2.55;;
32872;SDS011;19224;52.462;16.898;2022-07-19T10:42:17;6.30;;;2.42;;
32872;SDS011;19224;52.462;16.898;2022-07-19T10:50:16;6.95;;;2.20;;
32872;SDS011;19224;52.462;16.898;2022-07-19T10:52:50;11.05;;;2.70;;
32872;SDS011;19224;52.462;16.898;2022-07-19T11:00:46;6.12;;;2.45;;
32872;SDS011;19224;52.462;16.898;2022-07-19T11:06:00;10.80;;;2.47;;
32872;SDS011;19224;52.462;16.898;2022-07-19T11:08:35;3.05;;;1.67;;
32872;SDS011;19224;52.462;16.898;2022-07-19T11:11:14;5.35;;;1.80;;
32872;SDS011;19224;52.462;16.898;2022-07-19T11:13:48;6.28;;;2.42;;
32872;SDS011;19224;52.462;16.898;2022-07-19T11:16:25;4.12;;;2.00;;
32872;SDS011;19224;52.462;16.898;2022-07-19T11:19:03;5.60;;;2.10;;
32872;SDS011;19224;52.462;16.898;2022-07-19T11:21:37;3.30;;;1.92;;
32872;SDS011;19224;52.462;16.898;2022-07-19T11:24:09;6.45;;;2.00;;
32872;SDS011;19224;52.462;16.898;2022-07-19T11:26:39;4.58;;;2.40;;
32872;SDS011;19224;52.462;16.898;2022-07-19T11:29:09;8.60;;;2.10;;
32872;SDS011;19224;52.462;16.898;2022-07-19T11:31:45;6.00;;;2.27;;
32872;SDS011;19224;52.462;16.898;2022-07-19T11:34:17;10.35;;;2.10;;
32872;SDS011;19224;52.462;16.898;2022-07-19T11:36:56;3.98;;;1.98;;
32872;SDS011;19224;52.462;16.898;2022-07-19T11:39:44;6.17;;;2.05;;
32872;SDS011;19224;52.462;16.898;2022-07-19T11:45:18;6.03;;;2.08;;
32872;SDS011;19224;52.462;16.898;2022-07-19T11:47:53;6.17;;;2.02;;
32872;SDS011;19224;52.462;16.898;2022-07-19T11:50:26;3.50;;;1.72;;
32872;SDS011;19224;52.462;16.898;2022-07-19T11:52:57;5.87;;;2.00;;
32872;SDS011;19224;52.462;16.898;2022-07-19T11:55:31;5.15;;;2.10;;
32872;SDS011;19224;52.462;16.898;2022-07-19T11:58:08;4.65;;;2.00;;
32872;SDS011;19224;52.462;16.898;2022-07-19T12:00:38;7.55;;;2.25;;
32872;SDS011;19224;52.462;16.898;2022-07-19T12:03:13;4.67;;;2.40;;
32872;SDS011;19224;52.462;16.898;2022-07-19T12:06:02;6.90;;;2.15;;
32872;SDS011;19224;52.462;16.898;2022-07-19T12:08:37;4.33;;;2.27;;
32872;SDS011;19224;52.462;16.898;2022-07-19T12:11:19;9.00;;;2.22;;
32872;SDS011;19224;52.462;16.898;2022-07-19T12:13:48;4.25;;;2.67;;
32872;SDS011;19224;52.462;16.898;2022-07-19T12:16:22;6.58;;;2.08;;
32872;SDS011;19224;52.462;16.898;2022-07-19T12:18:53;4.55;;;2.25;;
32872;SDS011;19224;52.462;16.898;2022-07-19T12:24:12;6.25;;;2.40;;
32872;SDS011;19224;52.462;16.898;2022-07-19T12:29:30;4.80;;;2.62;;
32872;SDS011;19224;52.462;16.898;2022-07-19T12:32:15;7.40;;;2.62;;
32872;SDS011;19224;52.462;16.898;2022-07-19T12:35:02;5.22;;;2.30;;
32872;SDS011;19224;52.462;16.898;2022-07-19T12:40:19;5.45;;;2.40;;
32872;SDS011;19224;52.462;16.898;2022-07-19T12:42:59;6.03;;;2.47;;
32872;SDS011;19224;52.462;16.898;2022-07-19T12:45:36;5.10;;;2.45;;
32872;SDS011;19224;52.462;16.898;2022-07-19T12:48:07;12.28;;;2.75;;
32872;SDS011;19224;52.462;16.898;2022-07-19T12:50:41;6.90;;;2.50;;
32872;SDS011;19224;52.462;16.898;2022-07-19T12:53:16;5.10;;;2.45;;
32872;SDS011;19224;52.462;16.898;2022-07-19T12:55:48;7.62;;;2.47;;
32872;SDS011;19224;52.462;16.898;2022-07-19T12:58:18;5.55;;;2.50;;
32872;SDS011;19224;52.462;16.898;2022-07-19T13:01:06;7.30;;;2.40;;
32872;SDS011;19224;52.462;16.898;2022-07-19T13:03:38;8.65;;;2.72;;
32872;SDS011;19224;52.462;16.898;2022-07-19T13:06:09;7.80;;;2.40;;
32872;SDS011;19224;52.462;16.898;2022-07-19T13:08:40;7.15;;;3.00;;
32872;SDS011;19224;52.462;16.898;2022-07-19T13:11:10;4.08;;;2.85;;
32872;SDS011;19224;52.462;16.898;2022-07-19T13:13:40;6.55;;;2.75;;
32872;SDS011;19224;52.462;16.898;2022-07-19T13:16:10;5.87;;;2.65;;
32872;SDS011;19224;52.462;16.898;2022-07-19T13:18:40;6.45;;;2.87;;
32872;SDS011;19224;52.462;16.898;2022-07-19T13:21:10;12.88;;;3.33;;
32872;SDS011;19224;52.462;16.898;2022-07-19T13:23:41;6.78;;;2.95;;
32872;SDS011;19224;52.462;16.898;2022-07-19T13:26:11;5.78;;;3.02;;
32872;SDS011;19224;52.462;16.898;2022-07-19T13:28:41;5.22;;;2.83;;
32872;SDS011;19224;52.462;16.898;2022-07-19T13:31:11;8.13;;;2.83;;
32872;SDS011;19224;52.462;16.898;2022-07-19T13:33:42;6.65;;;2.80;;
32872;SDS011;19224;52.462;16.898;2022-07-19T13:36:12;5.80;;;3.10;;
32872;SDS011;19224;52.462;16.898;2022-07-19T13:38:42;10.85;;;2.70;;
32872;SDS011;19224;52.462;16.898;2022-07-19T13:41:13;7.15;;;2.52;;
32872;SDS011;19224;52.462;16.898;2022-07-19T13:43:44;7.22;;;2.98;;
32872;SDS011;19224;52.462;16.898;2022-07-19T13:46:15;5.67;;;2.85;;
32872;SDS011;19224;52.462;16.898;2022-07-19T13:48:45;3.10;;;2.80;;
32872;SDS011;19224;52.462;16.898;2022-07-19T13:51:16;5.75;;;2.58;;
32872;SDS011;19224;52.462;16.898;2022-07-19T13:53:47;8.50;;;3.47;;
32872;SDS011;19224;52.462;16.898;2022-07-19T13:56:17;3.70;;;2.40;;
32872;SDS011;19224;52.462;16.898;2022-07-19T13:58:48;4.83;;;2.70;;
32872;SDS011;19224;52.462;16.898;2022-07-19T14:01:19;9.58;;;2.72;;
32872;SDS011;19224;52.462;16.898;2022-07-19T14:03:49;6.70;;;2.72;;
32872;SDS011;19224;52.462;16.898;2022-07-19T14:06:19;7.80;;;2.90;;
32872;SDS011;19224;52.462;16.898;2022-07-19T14:08:50;4.28;;;2.50;;
32872;SDS011;19224;52.462;16.898;2022-07-19T14:11:20;4.58;;;2.27;;
32872;SDS011;19224;52.462;16.898;2022-07-19T14:13:50;5.47;;;2.90;;
32872;SDS011;19224;52.462;16.898;2022-07-19T14:16:20;7.75;;;2.95;;
32872;SDS011;19224;52.462;16.898;2022-07-19T14:18:51;4.10;;;2.52;;
32872;SDS011;19224;52.462;16.898;2022-07-19T14:21:23;6.67;;;2.40;;
32872;SDS011;19224;52.462;16.898;2022-07-19T14:23:53;5.33;;;2.50;;
32872;SDS011;19224;52.462;16.898;2022-07-19T14:26:23;2.42;;;2.22;;
32872;SDS011;19224;52.462;16.898;2022-07-19T14:28:53;3.27;;;2.42;;
32872;SDS011;19224;52.462;16.898;2022-07-19T14:31:23;5.40;;;2.50;;
32872;SDS011;19224;52.462;16.898;2022-07-19T14:33:53;10.32;;;2.83;;
32872;SDS011;19224;52.462;16.898;2022-07-19T14:36:23;15.00;;;3.02;;
32872;SDS011;19224;52.462;16.898;2022-07-19T14:38:54;8.38;;;3.05;;
32872;SDS011;19224;52.462;16.898;2022-07-19T14:41:24;4.80;;;2.60;;
32872;SDS011;19224;52.462;16.898;2022-07-19T14:43:54;3.40;;;2.80;;
32872;SDS011;19224;52.462;16.898;2022-07-19T14:46:24;7.55;;;2.80;;
32872;SDS011;19224;52.462;16.898;2022-07-19T14:48:54;11.38;;;2.90;;
32872;SDS011;19224;52.462;16.898;2022-07-19T14:51:24;3.77;;;2.95;;
32872;SDS011;19224;52.462;16.898;2022-07-19T14:53:54;27.55;;;4.10;;
32872;SDS011;19224;52.462;16.898;2022-07-19T14:56:24;10.82;;;2.87;;
32872;SDS011;19224;52.462;16.898;2022-07-19T14:58:55;9.35;;;2.40;;
32872;SDS011;19224;52.462;16.898;2022-07-19T15:01:25;9.33;;;2.90;;
32872;SDS011;19224;52.462;16.898;2022-07-19T15:03:55;15.80;;;3.72;;
32872;SDS011;19224;52.462;16.898;2022-07-19T15:06:26;20.68;;;3.45;;
32872;SDS011;19224;52.462;16.898;2022-07-19T15:08:57;9.58;;;3.20;;
32872;SDS011;19224;52.462;16.898;2022-07-19T15:11:27;11.10;;;2.62;;
32872;SDS011;19224;52.462;16.898;2022-07-19T15:13:59;5.25;;;2.67;;
32872;SDS011;19224;52.462;16.898;2022-07-19T15:16:29;7.25;;;2.87;;
32872;SDS011;19224;52.462;16.898;2022-07-19T15:18:59;6.55;;;3.47;;
32872;SDS011;19224;52.462;16.898;2022-07-19T15:21:29;4.87;;;3.05;;
32872;SDS011;19224;52.462;16.898;2022-07-19T15:24:07;3.02;;;2.70;;
32872;SDS011;19224;52.462;16.898;2022-07-19T15:26:33;6.60;;;2.77;;